Culebra, Puerto Rico
Current Conditions -  °F | °C
As of 9:53 AM on Sunday 21 Dec 2014 (Local Time) from TJNR Reporting Station
Few Clouds Few Clouds  
Wind Chill: 82°   Ceiling: Unl
Heat Index: 85°   Visibility: 10mi
Dew Point: 68°   Wind: 12mph
Humidity: 62%   Direction: 70°ENE
Pressure: 30.13"   Gusts: NA
Location:  18.31°N, 65.31°W
Report Text: TJNR 211353Z AUTO 07010KT 10SM FEW032 28/20 A3013 RMK AO2 SLP203 T02780200 $
Loading
Personal Weather Stations






























Interactive Weather Map New forecast layout! Learn more

10-Day Weather Forecast

Advertisements
Track Severe Weather on mobile